createdAt,value
2018-09-28T00:00:16.673Z,4.00
2018-09-28T00:02:48.851Z,3.53
2018-09-28T00:05:19.779Z,5.63
2018-09-28T00:07:50.601Z,4.67
2018-09-28T00:10:21.349Z,3.20
2018-09-28T00:12:52.276Z,4.63
2018-09-28T00:15:23.215Z,3.57
2018-09-28T00:17:54.281Z,3.70
2018-09-28T00:20:25.318Z,6.57
2018-09-28T00:22:56.170Z,6.43
2018-09-28T00:25:26.895Z,4.97
2018-09-28T00:27:58.314Z,4.23
2018-09-28T00:30:29.269Z,4.33
2018-09-28T00:33:00.211Z,4.10
2018-09-28T00:35:31.047Z,5.67
2018-09-28T00:38:01.766Z,4.93
2018-09-28T00:40:33.296Z,4.30
2018-09-28T00:43:04.009Z,4.53
2018-09-28T00:45:36.193Z,5.93
2018-09-28T00:48:07.398Z,4.07
2018-09-28T00:50:38.304Z,6.20
2018-09-28T00:53:09.185Z,5.40
2018-09-28T00:55:39.925Z,6.20
2018-09-28T00:58:11.106Z,4.60
2018-09-28T01:00:42.225Z,6.37
2018-09-28T01:03:13.095Z,4.33
2018-09-28T01:05:43.758Z,5.13
2018-09-28T01:08:14.598Z,5.77
2018-09-28T01:10:45.509Z,4.90
2018-09-28T01:13:16.218Z,6.13
2018-09-28T01:15:47.068Z,6.03
2018-09-28T01:18:17.800Z,4.30
2018-09-28T01:20:48.558Z,6.30
2018-09-28T01:23:19.392Z,5.23
2018-09-28T01:25:50.356Z,4.73
2018-09-28T01:28:21.591Z,4.83
2018-09-28T01:30:52.754Z,7.57
2018-09-28T01:33:23.635Z,6.10
2018-09-28T01:35:54.692Z,9.37
2018-09-28T01:38:25.321Z,5.70
2018-09-28T01:40:56.282Z,6.23
2018-09-28T01:43:27.249Z,5.47
2018-09-28T01:45:58.164Z,8.43
2018-09-28T01:48:29.143Z,6.20
2018-09-28T01:50:59.934Z,5.97
2018-09-28T01:53:30.793Z,7.90
2018-09-28T01:56:01.601Z,9.13
2018-09-28T01:58:32.663Z,7.70
2018-09-28T02:01:03.611Z,8.23
2018-09-28T02:03:34.303Z,8.50
2018-09-28T02:06:05.453Z,6.93
2018-09-28T02:08:36.196Z,9.07
2018-09-28T02:11:08.105Z,5.73
2018-09-28T02:13:38.989Z,9.43
2018-09-28T02:16:09.737Z,7.50
2018-09-28T02:18:40.206Z,9.27
2018-09-28T02:21:11.030Z,6.83
2018-09-28T02:23:42.142Z,6.47
2018-09-28T02:26:12.992Z,5.70
2018-09-28T02:28:43.813Z,5.33
2018-09-28T02:31:14.576Z,6.23
2018-09-28T02:33:45.433Z,5.73
2018-09-28T02:36:16.078Z,6.10
2018-09-28T02:38:46.853Z,7.60
2018-09-28T02:41:17.935Z,5.70
2018-09-28T02:43:48.617Z,6.97
2018-09-28T02:46:19.405Z,5.97
2018-09-28T02:48:50.105Z,5.83
2018-09-28T02:51:20.822Z,8.37
2018-09-28T02:53:51.593Z,7.00
2018-09-28T02:56:26.009Z,5.23
2018-09-28T02:58:56.643Z,5.97
2018-09-28T03:01:27.368Z,7.00
2018-09-28T03:03:58.001Z,8.70
2018-09-28T03:06:28.803Z,10.00
2018-09-28T03:08:59.649Z,6.70
2018-09-28T03:11:30.809Z,8.40
2018-09-28T03:14:01.925Z,6.23
2018-09-28T03:16:32.885Z,6.50
2018-09-28T03:19:03.978Z,11.47
2018-09-28T03:21:34.665Z,8.30
2018-09-28T03:24:05.654Z,7.83
2018-09-28T03:26:36.511Z,6.87
2018-09-28T03:29:07.717Z,9.40
2018-09-28T03:31:38.191Z,7.80
2018-09-28T03:34:09.123Z,6.83
2018-09-28T03:36:39.785Z,10.10
2018-09-28T03:39:10.717Z,7.17
2018-09-28T03:41:41.643Z,8.90
2018-09-28T03:44:12.542Z,7.00
2018-09-28T03:46:43.201Z,9.70
2018-09-28T03:49:14.123Z,7.87
2018-09-28T03:51:44.962Z,7.73
2018-09-28T03:54:15.926Z,11.53
2018-09-28T03:56:46.830Z,9.63
2018-09-28T03:59:18.197Z,9.90
2018-09-28T04:01:48.977Z,8.97
2018-09-28T04:04:19.595Z,7.20
2018-09-28T04:06:50.745Z,7.87
2018-09-28T04:09:21.625Z,8.57
2018-09-28T04:11:52.573Z,9.83
2018-09-28T04:14:23.504Z,9.37
2018-09-28T04:16:54.264Z,9.03
2018-09-28T04:19:25.377Z,9.50
2018-09-28T04:22:02.386Z,9.57
2018-09-28T04:24:33.587Z,8.57
2018-09-28T04:27:04.262Z,8.73
2018-09-28T04:29:34.965Z,7.80
2018-09-28T04:32:05.748Z,9.27
2018-09-28T04:34:36.640Z,9.63
2018-09-28T04:37:08.487Z,9.00
2018-09-28T04:39:39.105Z,9.67
2018-09-28T04:42:10.230Z,9.77
2018-09-28T04:44:40.903Z,12.10
2018-09-28T04:47:11.602Z,10.23
2018-09-28T04:49:42.260Z,10.50
2018-09-28T04:52:13.170Z,11.40
2018-09-28T04:54:43.909Z,10.27
2018-09-28T04:57:14.834Z,12.03
2018-09-28T04:59:45.590Z,12.10
2018-09-28T05:02:16.373Z,11.50
2018-09-28T05:04:46.957Z,10.87
2018-09-28T05:07:17.722Z,9.77
2018-09-28T05:09:48.585Z,13.13
2018-09-28T05:12:19.237Z,11.57
2018-09-28T05:14:49.880Z,11.17
2018-09-28T05:17:20.717Z,10.33
2018-09-28T05:19:51.553Z,10.47
2018-09-28T05:22:22.165Z,11.93
2018-09-28T05:24:52.924Z,11.57
2018-09-28T05:27:23.616Z,10.67
2018-09-28T05:29:54.887Z,14.93
2018-09-28T05:32:26.053Z,10.67
2018-09-28T05:34:56.908Z,14.17
2018-09-28T05:37:27.398Z,12.47
2018-09-28T05:39:58.281Z,11.80
2018-09-28T05:42:28.988Z,12.60
2018-09-28T05:44:59.820Z,13.80
2018-09-28T05:47:30.560Z,12.47
2018-09-28T05:50:01.592Z,14.27
2018-09-28T05:52:32.426Z,16.33
2018-09-28T05:55:03.604Z,14.10
2018-09-28T05:57:34.387Z,17.53
2018-09-28T06:01:10.781Z,15.63
2018-09-28T06:03:46.861Z,17.57
2018-09-28T06:06:17.875Z,12.70
2018-09-28T06:08:48.723Z,17.30
2018-09-28T06:11:19.855Z,13.87
2018-09-28T06:13:50.519Z,15.30
2018-09-28T06:16:21.392Z,16.17
2018-09-28T06:18:52.589Z,20.43
2018-09-28T06:21:23.538Z,20.43
2018-09-28T06:23:54.182Z,22.13
2018-09-28T06:26:24.937Z,21.70
2018-09-28T06:28:56.281Z,19.00
2018-09-28T06:31:27.489Z,23.87
2018-09-28T06:33:58.863Z,22.93
2018-09-28T06:36:30.017Z,21.43
2018-09-28T06:39:00.709Z,21.60
2018-09-28T06:41:31.797Z,22.67
2018-09-28T06:44:02.633Z,17.60
2018-09-28T06:46:33.583Z,20.47
2018-09-28T06:49:04.380Z,20.33
2018-09-28T06:51:35.466Z,20.23
2018-09-28T06:54:06.508Z,20.07
2018-09-28T06:56:37.538Z,19.33
2018-09-28T06:59:08.755Z,19.07
2018-09-28T07:01:39.753Z,19.83
2018-09-28T07:04:11.215Z,17.57
2018-09-28T07:06:41.957Z,17.97
2018-09-28T07:09:13.627Z,17.87
2018-09-28T07:11:44.471Z,16.60
2018-09-28T07:14:15.517Z,18.23
2018-09-28T07:16:46.848Z,15.63
2018-09-28T07:19:17.821Z,17.13
2018-09-28T07:21:48.571Z,15.23
2018-09-28T07:24:19.570Z,15.50
2018-09-28T07:26:50.597Z,13.47
2018-09-28T07:29:21.646Z,12.33
2018-09-28T07:31:53.140Z,14.97
2018-09-28T07:34:24.326Z,12.87
2018-09-28T07:36:55.239Z,12.40
2018-09-28T07:39:26.197Z,11.13
2018-09-28T07:41:59.278Z,8.43
2018-09-28T07:44:30.327Z,9.57
2018-09-28T07:47:01.063Z,8.13
2018-09-28T07:49:32.307Z,8.10
2018-09-28T07:52:03.453Z,9.13
2018-09-28T07:54:34.244Z,10.70
2018-09-28T07:57:06.507Z,8.93
2018-09-28T07:59:37.955Z,10.30
2018-09-28T08:02:09.776Z,8.10
2018-09-28T08:04:40.917Z,7.07
2018-09-28T08:07:11.853Z,9.07
2018-09-28T08:09:42.473Z,10.67
2018-09-28T08:12:13.377Z,13.37
2018-09-28T08:14:44.223Z,7.20
2018-09-28T08:17:15.092Z,5.83
2018-09-28T08:19:46.158Z,6.50
2018-09-28T08:22:17.186Z,5.53
2018-09-28T08:24:48.102Z,9.37
2018-09-28T08:27:19.417Z,5.33
2018-09-28T08:29:50.262Z,6.33
2018-09-28T08:32:20.981Z,6.77
2018-09-28T08:34:51.671Z,4.53
2018-09-28T08:37:22.668Z,9.70
2018-09-28T08:39:53.557Z,4.73
2018-09-28T08:42:24.750Z,5.17
2018-09-28T08:44:55.943Z,3.73
2018-09-28T08:47:29.046Z,4.47
2018-09-28T08:50:00.009Z,2.50
2018-09-28T08:52:30.695Z,3.50
2018-09-28T08:55:01.552Z,4.10
2018-09-28T08:57:32.277Z,5.67
2018-09-28T09:00:03.281Z,6.57
2018-09-28T09:02:34.030Z,5.03
2018-09-28T09:05:05.420Z,5.43
2018-09-28T09:07:36.517Z,11.63
2018-09-28T09:10:07.891Z,4.60
2018-09-28T09:12:38.700Z,5.33
2018-09-28T09:15:10.098Z,6.27
2018-09-28T09:17:41.461Z,5.70
2018-09-28T09:20:12.749Z,5.17
2018-09-28T09:22:43.401Z,4.57
2018-09-28T09:25:14.304Z,6.07
2018-09-28T09:27:45.134Z,7.43
2018-09-28T09:30:17.076Z,7.20
2018-09-28T09:32:48.105Z,7.17
2018-09-28T09:35:19.483Z,4.87
2018-09-28T09:37:50.298Z,5.77
2018-09-28T09:40:21.955Z,6.50
2018-09-28T09:42:52.639Z,5.40
2018-09-28T09:45:23.430Z,9.93
2018-09-28T09:47:54.372Z,6.80
2018-09-28T09:50:25.417Z,5.60
2018-09-28T09:52:56.231Z,8.77
2018-09-28T09:55:27.006Z,6.67
2018-09-28T09:57:57.940Z,7.43
2018-09-28T10:00:34.076Z,7.50
2018-09-28T10:03:10.000Z,8.43
2018-09-28T10:05:41.736Z,7.87
2018-09-28T10:08:13.188Z,10.63
2018-09-28T10:10:43.997Z,8.23
2018-09-28T10:13:14.567Z,6.93
2018-09-28T10:15:45.391Z,7.53
2018-09-28T10:18:16.224Z,6.40
2018-09-28T10:20:47.284Z,6.67
2018-09-28T10:23:17.982Z,7.40
2018-09-28T10:25:49.067Z,7.87
2018-09-28T10:28:20.288Z,8.50
2018-09-28T10:30:57.765Z,7.00
2018-09-28T10:33:28.717Z,8.47
2018-09-28T10:36:00.055Z,5.00
2018-09-28T10:38:45.728Z,9.50
2018-09-28T10:41:16.622Z,8.10
2018-09-28T10:43:47.769Z,8.77
2018-09-28T10:46:18.573Z,5.43
2018-09-28T10:48:49.474Z,6.73
2018-09-28T10:51:20.544Z,7.00
2018-09-28T10:53:51.814Z,8.03
2018-09-28T10:56:22.479Z,9.47
2018-09-28T10:58:53.661Z,7.33
2018-09-28T11:01:24.921Z,6.70
2018-09-28T11:03:56.574Z,6.43
2018-09-28T11:06:27.154Z,6.97
2018-09-28T11:08:58.438Z,6.67
2018-09-28T11:11:29.294Z,8.13
2018-09-28T11:14:01.280Z,7.67
2018-09-28T11:16:32.383Z,7.00
2018-09-28T11:19:03.234Z,6.10
2018-09-28T11:21:35.219Z,5.67
2018-09-28T11:24:06.519Z,11.13
2018-09-28T11:26:37.232Z,5.93
2018-09-28T11:29:08.055Z,5.87
2018-09-28T11:31:39.083Z,7.50
2018-09-28T11:34:09.605Z,9.53
2018-09-28T11:36:40.334Z,6.60
2018-09-28T11:39:11.159Z,8.93
2018-09-28T11:41:42.124Z,6.17
2018-09-28T11:44:12.986Z,3.83
2018-09-28T11:46:43.694Z,7.77
2018-09-28T11:49:14.652Z,7.30
2018-09-28T11:51:45.449Z,7.23
2018-09-28T11:54:16.351Z,6.43
2018-09-28T11:56:47.152Z,5.37
2018-09-28T11:59:18.733Z,7.70
2018-09-28T12:01:49.541Z,6.93
2018-09-28T12:04:20.716Z,12.30
2018-09-28T12:06:51.609Z,8.30
2018-09-28T12:09:23.022Z,9.67
2018-09-28T12:11:53.956Z,7.60
2018-09-28T12:14:25.963Z,8.87
2018-09-28T12:16:56.741Z,6.67
2018-09-28T12:19:27.440Z,6.80
2018-09-28T12:21:58.258Z,9.33
2018-09-28T12:24:29.396Z,6.47
2018-09-28T12:27:00.213Z,6.10
2018-09-28T12:29:31.453Z,11.73
2018-09-28T12:32:05.260Z,6.70
2018-09-28T12:34:36.737Z,8.77
2018-09-28T12:37:07.694Z,12.67
2018-09-28T12:39:38.526Z,7.97
2018-09-28T12:42:09.874Z,6.53
2018-09-28T12:44:40.491Z,6.57
2018-09-28T12:47:11.649Z,7.40
2018-09-28T12:49:42.332Z,5.77
2018-09-28T12:52:13.105Z,6.17
2018-09-28T12:54:44.171Z,5.67
2018-09-28T12:57:15.370Z,7.57
2018-09-28T12:59:46.158Z,8.33
2018-09-28T13:02:17.093Z,6.93
2018-09-28T13:04:47.985Z,7.70
2018-09-28T13:07:19.303Z,4.33
2018-09-28T13:09:50.504Z,6.00
2018-09-28T13:12:21.277Z,3.67
2018-09-28T13:14:52.718Z,6.73
2018-09-28T13:17:23.700Z,4.73
2018-09-28T13:19:54.377Z,4.43
2018-09-28T13:22:25.209Z,4.63
2018-09-28T13:24:56.414Z,4.73
2018-09-28T13:27:27.103Z,8.27
2018-09-28T13:29:57.847Z,4.83
2018-09-28T13:32:28.677Z,3.73
2018-09-28T13:34:59.997Z,6.07
2018-09-28T13:37:31.086Z,4.13
2018-09-28T13:40:02.671Z,5.30
2018-09-28T13:42:33.428Z,7.93
2018-09-28T13:45:04.916Z,8.57
2018-09-28T13:47:35.722Z,7.40
2018-09-28T13:50:07.050Z,4.93
2018-09-28T13:52:38.275Z,5.80
2018-09-28T13:55:09.596Z,7.70
2018-09-28T13:57:40.525Z,5.40
2018-09-28T14:00:11.592Z,5.93
2018-09-28T14:02:42.668Z,4.43
2018-09-28T14:05:13.674Z,5.87
2018-09-28T14:07:44.731Z,3.23
2018-09-28T14:10:15.718Z,3.73
2018-09-28T14:12:46.798Z,2.23
2018-09-28T14:15:17.680Z,4.70
2018-09-28T14:17:48.601Z,3.90
2018-09-28T14:20:19.373Z,3.90
2018-09-28T14:22:50.860Z,5.50
2018-09-28T14:25:21.607Z,6.00
2018-09-28T14:27:52.669Z,4.13
2018-09-28T14:30:23.342Z,4.77
2018-09-28T14:32:54.127Z,3.07
2018-09-28T14:35:25.080Z,4.07
2018-09-28T14:37:55.913Z,4.80
2018-09-28T14:40:26.844Z,4.90
2018-09-28T14:42:57.890Z,3.80
2018-09-28T14:45:28.553Z,3.40
2018-09-28T14:47:59.621Z,7.43
2018-09-28T14:50:30.761Z,4.43
2018-09-28T14:53:01.653Z,2.60
2018-09-28T14:55:32.757Z,5.37
2018-09-28T14:58:03.805Z,5.33
2018-09-28T15:00:34.687Z,6.27
2018-09-28T15:03:05.676Z,3.37
2018-09-28T15:05:36.636Z,4.83
2018-09-28T15:08:07.672Z,4.37
2018-09-28T15:10:38.948Z,5.53
2018-09-28T15:13:09.881Z,5.50
2018-09-28T15:15:40.676Z,4.17
2018-09-28T15:18:11.605Z,6.57
2018-09-28T15:20:42.539Z,2.80
2018-09-28T15:23:13.558Z,5.20
2018-09-28T15:25:44.218Z,2.03
2018-09-28T15:28:15.272Z,4.57
2018-09-28T15:30:45.930Z,4.33
2018-09-28T15:33:17.021Z,4.47
2018-09-28T15:35:48.435Z,1.90
2018-09-28T15:38:19.590Z,4.53
2018-09-28T15:40:50.374Z,4.13
2018-09-28T15:43:21.441Z,2.87
2018-09-28T15:45:52.066Z,2.90
2018-09-28T15:48:22.801Z,4.63
2018-09-28T15:50:54.024Z,4.17
2018-09-28T15:53:24.833Z,3.60
2018-09-28T15:55:55.771Z,4.53
2018-09-28T15:58:26.474Z,3.40
2018-09-28T16:00:57.184Z,3.13
2018-09-28T16:03:28.077Z,3.27
2018-09-28T16:05:58.764Z,3.83
2018-09-28T16:08:29.865Z,4.80
2018-09-28T16:11:00.829Z,5.03
2018-09-28T16:13:31.402Z,6.63
2018-09-28T16:16:02.010Z,4.70
2018-09-28T16:18:32.745Z,3.87
2018-09-28T16:21:03.906Z,3.27
2018-09-28T16:23:34.688Z,4.63
2018-09-28T16:26:05.501Z,3.90
2018-09-28T16:28:36.378Z,5.53
2018-09-28T16:31:07.264Z,3.13
2018-09-28T16:33:38.468Z,4.17
2018-09-28T16:36:09.109Z,3.73
2018-09-28T16:38:41.345Z,3.23
2018-09-28T16:41:12.022Z,3.50
2018-09-28T16:43:42.758Z,2.73
2018-09-28T16:46:13.449Z,3.50
2018-09-28T16:48:44.186Z,3.70
2018-09-28T16:51:15.106Z,2.73
2018-09-28T16:53:45.796Z,3.83
2018-09-28T16:56:16.319Z,2.67
2018-09-28T16:58:47.101Z,2.80
2018-09-28T17:01:19.230Z,2.40
2018-09-28T17:03:49.921Z,2.57
2018-09-28T17:06:21.108Z,3.13
2018-09-28T17:08:54.045Z,3.07
2018-09-28T17:11:24.733Z,2.20
2018-09-28T17:13:55.490Z,2.57
2018-09-28T17:16:26.501Z,3.40
2018-09-28T17:18:57.545Z,3.43
2018-09-28T17:21:28.819Z,2.80
2018-09-28T17:23:59.257Z,3.63
2018-09-28T17:26:30.018Z,3.37
2018-09-28T17:29:00.572Z,4.73
2018-09-28T17:31:31.466Z,3.50
2018-09-28T17:34:02.400Z,5.10
2018-09-28T17:36:32.927Z,3.70
2018-09-28T17:39:04.473Z,3.23
2018-09-28T17:41:35.853Z,2.37
2018-09-28T17:44:06.760Z,3.67
2018-09-28T17:46:37.570Z,7.57
2018-09-28T17:49:08.404Z,2.77
2018-09-28T17:51:39.018Z,3.10
2018-09-28T17:54:09.732Z,4.73
2018-09-28T17:56:40.374Z,3.33
2018-09-28T17:59:11.624Z,5.00
2018-09-28T18:01:42.371Z,4.13
2018-09-28T18:04:13.381Z,7.53
2018-09-28T18:06:45.433Z,2.47
2018-09-28T18:09:16.321Z,4.60
2018-09-28T18:11:47.291Z,2.90
2018-09-28T18:14:18.358Z,2.47
2018-09-28T18:16:50.228Z,1.87
2018-09-28T18:19:21.340Z,4.60
2018-09-28T18:21:52.453Z,4.23
2018-09-28T18:24:23.917Z,2.53
2018-09-28T18:26:54.530Z,2.60
2018-09-28T18:29:25.564Z,3.87
2018-09-28T18:31:56.762Z,2.43
2018-09-28T18:34:30.661Z,4.00
2018-09-28T18:37:01.636Z,5.30
2018-09-28T18:39:32.137Z,2.87
2018-09-28T18:42:03.370Z,2.53
2018-09-28T18:44:35.270Z,1.97
2018-09-28T18:47:06.672Z,2.30
2018-09-28T18:49:37.465Z,3.63
2018-09-28T18:52:08.208Z,5.00
2018-09-28T18:54:39.133Z,2.63
2018-09-28T18:57:09.805Z,4.90
2018-09-28T18:59:40.902Z,3.83
2018-09-28T19:02:11.992Z,2.47
2018-09-28T19:04:43.268Z,2.63
2018-09-28T19:07:14.300Z,3.07
2018-09-28T19:09:45.264Z,3.43
2018-09-28T19:12:16.431Z,3.10
2018-09-28T19:14:47.312Z,4.37
2018-09-28T19:17:18.186Z,4.60
2018-09-28T19:19:48.970Z,4.00
2018-09-28T19:22:26.146Z,2.93
2018-09-28T19:24:57.158Z,4.80
2018-09-28T19:27:27.869Z,3.07
2018-09-28T19:29:58.731Z,2.93
2018-09-28T19:32:29.582Z,2.67
2018-09-28T19:35:01.175Z,3.57
2018-09-28T19:37:32.361Z,3.17
2018-09-28T19:40:03.508Z,3.93
2018-09-28T19:42:34.431Z,4.53
2018-09-28T19:45:05.790Z,6.07
2018-09-28T19:47:37.123Z,2.10
2018-09-28T19:50:09.304Z,3.53
2018-09-28T19:52:40.023Z,3.60
2018-09-28T19:55:10.841Z,3.40
2018-09-28T19:57:42.047Z,2.70
2018-09-28T20:00:12.885Z,4.50
2018-09-28T20:02:43.560Z,5.67
2018-09-28T20:05:15.105Z,4.10
2018-09-28T20:07:46.278Z,2.90
2018-09-28T20:10:17.278Z,3.50
2018-09-28T20:12:48.083Z,3.17
2018-09-28T20:15:18.756Z,3.60
2018-09-28T20:17:49.983Z,5.10
2018-09-28T20:20:20.695Z,3.63
2018-09-28T20:22:51.714Z,3.10
2018-09-28T20:25:22.538Z,5.50
2018-09-28T20:27:53.539Z,3.00
2018-09-28T20:30:24.729Z,5.03
2018-09-28T20:32:55.822Z,5.57
2018-09-28T20:35:26.680Z,3.73
2018-09-28T20:37:57.814Z,6.27
2018-09-28T20:40:29.023Z,5.63
2018-09-28T20:42:59.862Z,5.13
2018-09-28T20:45:30.644Z,4.47
2018-09-28T20:48:01.528Z,4.83
2018-09-28T20:50:32.368Z,7.03
2018-09-28T20:53:03.357Z,6.40
2018-09-28T20:55:34.377Z,4.57
2018-09-28T20:58:05.521Z,5.13
2018-09-28T21:00:36.479Z,3.47
2018-09-28T21:03:07.868Z,4.63
2018-09-28T21:05:39.212Z,7.40
2018-09-28T21:08:09.884Z,2.93
2018-09-28T21:10:40.590Z,3.63
2018-09-28T21:13:11.305Z,5.40
2018-09-28T21:15:42.228Z,5.17
2018-09-28T21:18:13.389Z,5.53
2018-09-28T21:20:44.160Z,9.20
2018-09-28T21:23:14.863Z,3.97
2018-09-28T21:25:45.802Z,5.40
2018-09-28T21:28:16.858Z,7.10
2018-09-28T21:30:47.932Z,4.93
2018-09-28T21:33:18.588Z,3.83
2018-09-28T21:35:49.353Z,4.30
2018-09-28T21:38:19.975Z,5.03
2018-09-28T21:40:50.894Z,5.70
2018-09-28T21:43:21.703Z,4.07
2018-09-28T21:45:52.844Z,6.70
2018-09-28T21:48:23.566Z,3.63
2018-09-28T21:50:54.224Z,3.00
2018-09-28T21:53:25.782Z,3.83
2018-09-28T21:55:56.418Z,5.37
2018-09-28T21:58:27.043Z,3.40
2018-09-28T22:00:58.630Z,5.07
2018-09-28T22:03:29.438Z,3.83
2018-09-28T22:06:00.297Z,6.80
2018-09-28T22:08:31.181Z,6.57
2018-09-28T22:11:02.056Z,5.43
2018-09-28T22:13:32.525Z,6.50
2018-09-28T22:16:03.323Z,5.37
2018-09-28T22:18:34.489Z,5.73
2018-09-28T22:21:05.242Z,6.33
2018-09-28T22:23:36.070Z,9.47
2018-09-28T22:26:06.939Z,5.53
2018-09-28T22:28:37.518Z,5.60
2018-09-28T22:31:08.302Z,5.70
2018-09-28T22:33:39.053Z,4.10
2018-09-28T22:36:09.824Z,4.23
2018-09-28T22:38:40.934Z,7.67
2018-09-28T22:41:11.535Z,6.17
2018-09-28T22:43:42.341Z,4.80
2018-09-28T22:46:13.264Z,4.63
2018-09-28T22:48:43.876Z,7.13
2018-09-28T22:51:14.845Z,3.33
2018-09-28T22:53:46.068Z,4.67
2018-09-28T22:56:16.657Z,5.97
2018-09-28T22:58:47.371Z,7.17
2018-09-28T23:01:18.343Z,5.43
2018-09-28T23:03:49.130Z,3.83
2018-09-28T23:06:19.885Z,7.07
2018-09-28T23:08:50.605Z,6.87
2018-09-28T23:11:21.333Z,4.63
2018-09-28T23:13:51.966Z,4.57
2018-09-28T23:16:22.529Z,3.07
2018-09-28T23:18:53.457Z,3.53
2018-09-28T23:21:24.273Z,5.10
2018-09-28T23:23:55.065Z,6.30
2018-09-28T23:26:25.738Z,4.10
2018-09-28T23:28:56.377Z,4.90
2018-09-28T23:31:27.134Z,3.83
2018-09-28T23:33:57.969Z,4.03
2018-09-28T23:36:28.929Z,4.40
2018-09-28T23:38:59.475Z,5.77
2018-09-28T23:41:30.397Z,5.87
2018-09-28T23:44:01.173Z,5.57
2018-09-28T23:46:32.013Z,7.93
2018-09-28T23:49:02.753Z,4.90
2018-09-28T23:51:33.478Z,4.73
2018-09-28T23:54:04.132Z,6.63
2018-09-28T23:56:35.043Z,5.13
2018-09-28T23:59:05.673Z,9.93
